Historique des mesures à Cassis (13260), France
Quotidien Résumé Septembre 30, 2017 Unités:  Métrique    US   Métrique/US
« Précédent (Jour)
Suivant (Jour) »
Quotidien Hebdomadaire Mensuel Annuel Période au choix
  Maximum: Minimum: Moyenne:
Température: TemperatureC °C 16.4 °C 18.6 °C
Point de rosée: DewpointC °C 9.0 °C 12.3 °C
Humidité: Humidity % 57 % 63 %
Vitesse du vent: 0 km/h 0 km/h 4 km/h
Rafales: 0 km/h - -
Vent:- - SSE
Pression: PressurehPa hPa 1014.4 hPa -
Précipitations: 10.4 mm    
Historical Graphs
 
 
Mesures pour : Septembre 30, 2017
Heure Temperature Point de rosée Pression Vent Vitesse du vent Rafales Humidité Pluie (par heure) Conditions
TemperatureC °C DewpointC °C PressurehPa hPa Calm     Humidity % HourlyPrecipMM mm SoftwareType W/m2
00:11 18.4 °C 10.2 °C 1017.8 hPa Calm   2.9 km/h 59 % 0.0 mm open2300-1.11 W/m2
01:11 17.9 °C 9.4 °C 1017.2 hPa Calm   2.9 km/h 58 % 0.0 mm open2300-1.11 W/m2
02:11 17.6 °C 9.4 °C 1017.2 hPa NNW 2.3 km/h 5.6 km/h 59 % 0.0 mm open2300-1.11 W/m2
03:11 17.4 °C 9.6 °C 1016.8 hPa NNW 5.6 km/h 8 km/h 60 % 0.0 mm open2300-1.11 W/m2
04:11 17.6 °C 9.4 °C 1016.5 hPa North 2.3 km/h 2.3 km/h 59 % 0.0 mm open2300-1.11 W/m2
05:11 17.2 °C 9.1 °C 1016.5 hPa Calm   5.1 km/h 59 % 0.0 mm open2300-1.11 W/m2
06:11 16.5 °C 9.0 °C 1016.5 hPa Calm   4.7 km/h 61 % 0.0 mm open2300-1.11 W/m2
07:11 16.4 °C 9.1 °C 1016.5 hPa Calm   3.4 km/h 62 % 0.0 mm open2300-1.11 W/m2
08:11 16.6 °C 9.3 °C 1016.5 hPa North 7.6 km/h 7.6 km/h 62 % 0.0 mm open2300-1.11 W/m2
09:11 18.1 °C 9.9 °C 1016.8 hPa Calm   2.3 km/h 59 % 0.0 mm open2300-1.11 W/m2
10:11 19.6 °C 11.1 °C 1016.8 hPa SE 12.2 km/h 12.2 km/h 58 % 0.0 mm open2300-1.11 W/m2
11:12 20.8 °C 12.2 °C 1016.5 hPa SE 8 km/h 8 km/h 58 % 0.0 mm open2300-1.11 W/m2
12:11 22.5 °C 13.5 °C 1016.1 hPa SSE 6.9 km/h 7.6 km/h 57 % 0.0 mm open2300-1.11 W/m2
13:11 22.5 °C 14.8 °C 1016.1 hPa SSE 7.6 km/h 7.6 km/h 62 % 0.0 mm open2300-1.11 W/m2
14:11 22.5 °C 15.3 °C 1015.5 hPa SE 10.3 km/h 10.3 km/h 64 % 0.0 mm open2300-1.11 W/m2
15:11 22.4 °C 15.7 °C 1015.1 hPa Calm   10.3 km/h 66 % 0.0 mm open2300-1.11 W/m2
16:11 22.1 °C 15.9 °C 1014.8 hPa Calm   5.6 km/h 68 % 0.0 mm open2300-1.11 W/m2
17:11 21.8 °C 15.8 °C 1014.4 hPa SE 6.4 km/h 6.4 km/h 69 % 0.0 mm open2300-1.11 W/m2
18:11 21.3 °C 15.8 °C 1014.4 hPa SE 2.3 km/h 6.9 km/h 71 % 0.0 mm open2300-1.11 W/m2
19:11 20.6 °C 16.2 °C 1014.4 hPa NE 5.1 km/h 8 km/h 76 % 4.6 mm open2300-1.11 W/m2
20:11 19.2 °C 16.2 °C 1014.8 hPa Calm     83 % 4.6 mm open2300-1.11 W/m2
21:11 19.3 °C 16.5 °C 1014.8 hPa Calm     84 % 1.0 mm open2300-1.11 W/m2
22:11 19.2 °C 16.8 °C 1014.8 hPa Calm     86 % 0.0 mm open2300-1.11 W/m2
23:11 18.6 °C 16.2 °C 1014.8 hPa NW 22.5 km/h 31.9 km/h 86 % 0.0 mm open2300-1.11 W/m2
Observations météo à CASSIS
WU-History script by Weather Underground - 1 mb